Airfield :
LOGIN :

Register | Disclaimer

   EN    FR    IT 

 










Legend :    VFR   Marginal VFR   IFR   Intensive IFR   Very Intensive IFR
Visi :
Ceiling :
>= 8 km
>= 3000ft
5 to 8 km
1000 to 3000 ft
1500m to 5 km
500 to 1000 ft
800 to 1500m
200 to 500 ft
< 800m
< 200 ft
Symbols :   Thunderstorms  Fog  Heavy snow  Heavy precipitations  Wind > 20 kt
SIGMETs :     Misc.  Thunderstorms  Icing  Turbulence  Mountain Waves  Volcanic Ashes






- Airport Elevation : 7 ft
- IATA code : VCE


LIPZ - Marco Polo Int. Venezia

CURRENT METAR :
  • 021650Z 15006KT 120V190 CAVOK 11/01 Q1012 NOSIG

EXPIRED METARs :
  • 021620Z 16006KT 130V190 CAVOK 11/01 Q1012 NOSIG
  • 021550Z 16007KT 130V190 CAVOK 12/01 Q1012 NOSIG
  • 021520Z 15008KT CAVOK 12/00 Q1012 NOSIG
  • 021450Z 14007KT CAVOK 12/M00 Q1013 NOSIG
  • 021420Z 15007KT CAVOK 12/M00 Q1013 NOSIG
  • 021350Z 15007KT 120V180 CAVOK 12/M01 Q1013 NOSIG

TAF TAF LIPZ
Valid from the 02 at 12:00 until the 03 at 18:00 UTC


021100Z 0212/0318 17010KT CAVOK
BECMG 0219/0221 03005KT
BECMG 0310/0312 16010KT



MET'MAP, your aeronautical weather chart ! - Copyright ORBIFLY December 2007 - Disclaimer

ORBIFLY MET'MAP TEAM :

Programming & Development : Alexandra Zaïnal
Concept & original design : Baudouin d'Aumeries
Assistance for programming : Marc-Olivier Méhu
Technical & hardware support : Manuel Goepfert

Contact : metmap@orbifly.com




SOURCES & CREDITS :

   NOAA